createdAt,value
2019-03-06T00:01:27.402Z,100452.43
2019-03-06T00:03:57.875Z,100452.65
2019-03-06T00:06:28.367Z,100461.98
2019-03-06T00:08:58.829Z,100459.12
2019-03-06T00:11:29.235Z,100459.42
2019-03-06T00:13:59.705Z,100462.48
2019-03-06T00:16:30.120Z,100472.50
2019-03-06T00:19:00.578Z,100469.20
2019-03-06T00:21:31.085Z,100472.98
2019-03-06T00:24:01.609Z,100471.42
2019-03-06T00:26:32.119Z,100472.81
2019-03-06T00:29:03.654Z,100475.20
2019-03-06T00:31:34.081Z,100476.91
2019-03-06T00:34:04.619Z,100480.69
2019-03-06T00:36:35.129Z,100485.84
2019-03-06T00:39:07.102Z,100482.94
2019-03-06T00:41:39.996Z,100485.84
2019-03-06T00:44:10.466Z,100484.34
2019-03-06T00:46:40.895Z,100473.88
2019-03-06T00:49:17.151Z,100485.77
2019-03-06T00:51:49.017Z,100487.05
2019-03-06T00:54:19.481Z,100489.11
2019-03-06T00:56:49.893Z,100496.66
2019-03-06T00:59:20.342Z,100498.57
2019-03-06T01:01:52.942Z,100499.67
2019-03-06T01:04:31.958Z,100503.84
2019-03-06T01:07:03.595Z,100498.48
2019-03-06T01:09:34.348Z,100507.70
2019-03-06T01:12:04.846Z,100512.48
2019-03-06T01:14:35.327Z,100511.19
2019-03-06T01:17:05.764Z,100509.48
2019-03-06T01:19:36.229Z,100513.78
2019-03-06T01:22:06.727Z,100514.78
2019-03-06T01:24:37.417Z,100516.84
2019-03-06T01:27:07.900Z,100529.16
2019-03-06T01:29:38.358Z,100523.20
2019-03-06T01:32:08.800Z,100526.29
2019-03-06T01:34:40.887Z,100531.73
2019-03-06T01:37:12.967Z,100528.36
2019-03-06T01:39:47.849Z,100534.52
2019-03-06T01:42:20.008Z,100533.73
2019-03-06T01:44:50.473Z,100536.89
2019-03-06T01:47:20.939Z,100539.98
2019-03-06T01:49:51.399Z,100548.01
2019-03-06T01:52:21.843Z,100554.55
2019-03-06T01:54:52.316Z,100558.32
2019-03-06T01:57:22.739Z,100555.13
2019-03-06T01:59:53.287Z,100557.84
2019-03-06T02:02:23.796Z,100563.77
2019-03-06T02:04:54.260Z,100553.55
2019-03-06T02:07:25.070Z,100563.86
2019-03-06T02:09:55.532Z,100555.83
2019-03-06T02:12:25.966Z,100557.73
2019-03-06T02:14:56.433Z,100558.10
2019-03-06T02:17:26.872Z,100559.11
2019-03-06T02:19:57.779Z,100565.92
2019-03-06T02:22:28.212Z,100574.17
2019-03-06T02:24:58.756Z,100585.15
2019-03-06T02:27:29.251Z,100580.78
2019-03-06T02:29:59.991Z,100579.00
2019-03-06T02:32:30.434Z,100578.10
2019-03-06T02:35:00.889Z,100580.38
2019-03-06T02:37:31.395Z,100586.62
2019-03-06T02:40:01.918Z,100587.38
2019-03-06T02:42:32.596Z,100581.06
2019-03-06T02:45:03.059Z,100584.70
2019-03-06T02:47:34.558Z,100586.27
2019-03-06T02:50:07.767Z,100594.45
2019-03-06T02:52:38.280Z,100599.71
2019-03-06T02:55:11.365Z,100608.20
2019-03-06T02:57:46.472Z,100610.95
2019-03-06T03:00:36.956Z,100609.36
2019-03-06T03:03:25.509Z,100617.36
2019-03-06T03:06:00.483Z,100619.83
2019-03-06T03:08:31.214Z,100623.48
2019-03-06T03:11:01.678Z,100624.59
2019-03-06T03:13:32.180Z,100621.81
2019-03-06T03:16:02.713Z,100628.56
2019-03-06T03:18:33.293Z,100634.96
2019-03-06T03:21:04.733Z,100637.33
2019-03-06T03:23:35.174Z,100641.81
2019-03-06T03:26:05.662Z,100640.87
2019-03-06T03:28:36.100Z,100645.11
2019-03-06T03:31:06.574Z,100644.56
2019-03-06T03:33:37.013Z,100648.14
2019-03-06T03:36:07.471Z,100651.70
2019-03-06T03:38:37.920Z,100660.60
2019-03-06T03:41:08.469Z,100660.43
2019-03-06T03:43:39.565Z,100662.31
2019-03-06T03:46:10.272Z,100663.80
2019-03-06T03:48:40.721Z,100672.06
2019-03-06T03:51:11.196Z,100669.66
2019-03-06T03:53:41.646Z,100671.32
2019-03-06T03:56:12.108Z,100680.34
2019-03-06T03:58:42.538Z,100675.18
2019-03-06T04:01:13.014Z,100672.19
2019-03-06T04:03:43.449Z,100676.95
2019-03-06T04:06:13.982Z,100686.45
2019-03-06T04:08:44.488Z,100690.14
2019-03-06T04:11:14.950Z,100693.84
2019-03-06T04:13:45.403Z,100696.37
2019-03-06T04:16:15.852Z,100692.52
2019-03-06T04:18:46.675Z,100697.98
2019-03-06T04:21:17.125Z,100708.72
2019-03-06T04:23:47.557Z,100709.19
2019-03-06T04:26:18.026Z,100714.61
2019-03-06T04:28:48.471Z,100716.22
2019-03-06T04:31:19.100Z,100721.73
2019-03-06T04:33:49.547Z,100714.91
2019-03-06T04:36:20.020Z,100715.50
2019-03-06T04:38:50.449Z,100723.16
2019-03-06T04:41:21.992Z,100725.36
2019-03-06T04:43:53.860Z,100739.71
2019-03-06T04:46:24.324Z,100748.30
2019-03-06T04:48:54.745Z,100747.02
2019-03-06T04:51:25.212Z,100744.45
2019-03-06T04:53:55.712Z,100749.83
2019-03-06T04:56:26.168Z,100750.84
2019-03-06T04:58:56.608Z,100751.56
2019-03-06T05:01:37.577Z,100755.80
2019-03-06T05:04:08.083Z,100752.16
2019-03-06T05:06:38.550Z,100756.70
2019-03-06T05:09:08.977Z,100763.81
2019-03-06T05:11:39.443Z,100765.86
2019-03-06T05:14:10.050Z,100769.06
2019-03-06T05:16:42.161Z,100769.45
2019-03-06T05:19:12.714Z,100775.16
2019-03-06T05:21:43.520Z,100776.37
2019-03-06T05:24:13.945Z,100783.63
2019-03-06T05:26:44.430Z,100779.91
2019-03-06T05:29:14.938Z,100780.45
2019-03-06T05:32:21.794Z,100779.98
2019-03-06T05:34:52.246Z,100787.47
2019-03-06T05:37:40.812Z,100782.94
2019-03-06T05:40:11.514Z,100790.66
2019-03-06T05:42:41.998Z,100791.48
2019-03-06T05:45:12.749Z,100787.97
2019-03-06T05:47:43.225Z,100794.02
2019-03-06T05:50:14.645Z,100794.78
2019-03-06T05:52:45.241Z,100802.65
2019-03-06T05:55:15.676Z,100806.28
2019-03-06T05:57:46.146Z,100799.52
2019-03-06T06:00:19.160Z,100800.98
2019-03-06T06:02:49.648Z,100807.15
2019-03-06T06:05:23.107Z,100805.67
2019-03-06T06:07:53.880Z,100805.59
2019-03-06T06:10:24.302Z,100801.72
2019-03-06T06:12:54.853Z,100812.67
2019-03-06T06:15:25.295Z,100820.19
2019-03-06T06:17:56.297Z,100819.41
2019-03-06T06:20:26.896Z,100818.51
2019-03-06T06:23:01.747Z,100825.55
2019-03-06T06:25:33.804Z,100818.36
2019-03-06T06:28:04.294Z,100821.62
2019-03-06T06:30:34.920Z,100828.33
2019-03-06T06:33:05.466Z,100829.88
2019-03-06T06:35:35.959Z,100830.59
2019-03-06T06:38:07.489Z,100830.42
2019-03-06T06:40:37.914Z,100831.13
2019-03-06T06:43:09.395Z,100827.58
2019-03-06T06:45:39.900Z,100832.19
2019-03-06T06:48:21.246Z,100834.97
2019-03-06T06:51:02.589Z,100828.84
2019-03-06T06:53:45.303Z,100838.71
2019-03-06T06:56:31.050Z,100834.47
2019-03-06T06:59:04.786Z,100842.06
2019-03-06T07:02:08.613Z,100848.58
2019-03-06T07:05:02.927Z,100850.59
2019-03-06T07:07:38.257Z,100854.18
2019-03-06T07:10:22.450Z,100853.55
2019-03-06T07:13:12.689Z,100848.80
2019-03-06T07:16:01.193Z,100846.52
2019-03-06T07:18:33.354Z,100847.81
2019-03-06T07:21:11.663Z,100851.91
2019-03-06T07:23:49.633Z,100854.89
2019-03-06T07:26:38.241Z,100852.91
2019-03-06T07:29:16.552Z,100857.63
2019-03-06T07:31:48.684Z,100855.54
2019-03-06T07:34:32.921Z,100860.53
2019-03-06T07:37:05.201Z,100860.22
2019-03-06T07:39:37.414Z,100853.48
2019-03-06T07:42:21.418Z,100853.87
2019-03-06T07:45:21.191Z,100863.30
2019-03-06T07:47:53.356Z,100869.86
2019-03-06T07:50:25.458Z,100870.34
2019-03-06T07:53:19.929Z,100876.98
2019-03-06T07:55:52.105Z,100876.78
2019-03-06T07:58:50.568Z,100874.16
2019-03-06T08:01:22.455Z,100877.16
2019-03-06T08:04:02.683Z,100881.41
2019-03-06T08:06:33.236Z,100882.08
2019-03-06T08:09:04.123Z,100882.78
2019-03-06T08:11:53.886Z,100880.38
2019-03-06T08:14:31.628Z,100881.86
2019-03-06T08:17:06.729Z,100889.42
2019-03-06T08:19:47.364Z,100889.19
2019-03-06T08:22:19.655Z,100892.77
2019-03-06T08:24:54.668Z,100888.78
2019-03-06T08:27:26.145Z,100880.38
2019-03-06T08:29:56.583Z,100882.86
2019-03-06T08:32:28.690Z,100884.52
2019-03-06T08:35:00.245Z,100890.09
2019-03-06T08:37:30.832Z,100888.66
2019-03-06T08:40:01.271Z,100884.17
2019-03-06T08:42:32.996Z,100891.70
2019-03-06T08:45:04.169Z,100888.56
2019-03-06T08:47:40.277Z,100888.71
2019-03-06T08:50:18.203Z,100890.63
2019-03-06T08:52:50.397Z,100890.07
2019-03-06T08:55:40.660Z,100890.47
2019-03-06T08:58:18.619Z,100890.59
2019-03-06T09:00:50.705Z,100896.55
2019-03-06T09:03:26.865Z,100899.49
2019-03-06T09:06:08.040Z,100895.16
2019-03-06T09:08:56.356Z,100894.09
2019-03-06T09:11:37.208Z,100894.20
2019-03-06T09:14:26.019Z,100894.63
2019-03-06T09:17:03.926Z,100886.38
2019-03-06T09:19:49.566Z,100882.56
2019-03-06T09:22:21.725Z,100883.64
2019-03-06T09:24:56.853Z,100879.02
2019-03-06T09:27:34.767Z,100878.23
2019-03-06T09:30:16.028Z,100878.70
2019-03-06T09:32:48.818Z,100877.56
2019-03-06T09:35:33.094Z,100880.47
2019-03-06T09:38:22.991Z,100877.23
2019-03-06T09:41:10.820Z,100877.04
2019-03-06T09:43:48.638Z,100868.36
2019-03-06T09:46:23.689Z,100871.66
2019-03-06T09:48:56.060Z,100873.63
2019-03-06T09:51:31.059Z,100872.62
2019-03-06T09:54:03.120Z,100866.43
2019-03-06T09:56:35.307Z,100865.75
2019-03-06T09:59:07.569Z,100860.03
2019-03-06T10:01:55.576Z,100857.05
2019-03-06T10:04:34.328Z,100858.13
2019-03-06T10:07:18.478Z,100852.92
2019-03-06T10:10:08.764Z,100862.46
2019-03-06T10:12:51.236Z,100849.49
2019-03-06T10:15:32.046Z,100838.66
2019-03-06T10:18:04.162Z,100840.52
2019-03-06T10:20:34.614Z,100832.91
2019-03-06T10:23:05.152Z,100830.37
2019-03-06T10:25:36.583Z,100828.03
2019-03-06T10:28:07.118Z,100816.24
2019-03-06T10:30:37.637Z,100823.38
2019-03-06T10:33:08.176Z,100834.84
2019-03-06T10:35:38.676Z,100827.42
2019-03-06T10:38:16.442Z,100820.11
2019-03-06T10:40:41.569Z,100806.66
2019-03-06T10:43:12.410Z,100809.17
2019-03-06T10:45:43.928Z,100803.44
2019-03-06T10:48:14.469Z,100810.36
2019-03-06T10:50:44.978Z,100802.75
2019-03-06T10:53:15.525Z,100806.70
2019-03-06T10:55:46.036Z,100812.34
2019-03-06T10:58:16.575Z,100809.61
2019-03-06T11:00:51.674Z,100807.48
2019-03-06T11:03:23.936Z,100807.77
2019-03-06T11:05:54.427Z,100806.37
2019-03-06T11:08:25.106Z,100802.18
2019-03-06T11:10:55.735Z,100807.41
2019-03-06T11:13:26.359Z,100793.16
2019-03-06T11:15:56.930Z,100792.58
2019-03-06T11:18:27.481Z,100786.90
2019-03-06T11:20:58.011Z,100779.23
2019-03-06T11:23:29.122Z,100779.34
2019-03-06T11:25:59.580Z,100778.95
2019-03-06T11:28:30.071Z,100772.80
2019-03-06T11:31:00.597Z,100765.66
2019-03-06T11:33:31.312Z,100766.31
2019-03-06T11:36:02.039Z,100760.50
2019-03-06T11:38:32.577Z,100746.93
2019-03-06T11:41:02.999Z,100753.00
2019-03-06T11:43:33.548Z,100748.75
2019-03-06T11:46:04.149Z,100749.19
2019-03-06T11:48:34.759Z,100748.48
2019-03-06T11:51:05.498Z,100738.41
2019-03-06T11:53:36.093Z,100736.98
2019-03-06T11:56:06.603Z,100732.41
2019-03-06T11:58:38.143Z,100732.86
2019-03-06T12:01:11.946Z,100729.36
2019-03-06T12:03:43.228Z,100731.56
2019-03-06T12:06:13.826Z,100729.17
2019-03-06T12:08:45.818Z,100729.40
2019-03-06T12:11:16.554Z,100725.54
2019-03-06T12:13:47.087Z,100719.21
2019-03-06T12:16:18.846Z,100700.95
2019-03-06T12:18:49.407Z,100700.31
2019-03-06T12:21:20.072Z,100688.02
2019-03-06T12:23:51.290Z,100679.14
2019-03-06T12:26:22.149Z,100670.80
2019-03-06T12:28:52.698Z,100674.84
2019-03-06T12:31:23.134Z,100664.22
2019-03-06T12:33:53.696Z,100653.63
2019-03-06T12:36:24.126Z,100653.19
2019-03-06T12:38:54.616Z,100642.09
2019-03-06T12:41:25.069Z,100634.34
2019-03-06T12:43:55.549Z,100629.90
2019-03-06T12:46:25.997Z,100615.56
2019-03-06T12:48:58.418Z,100610.64
2019-03-06T12:51:29.239Z,100607.80
2019-03-06T12:53:59.714Z,100610.97
2019-03-06T12:56:31.129Z,100604.16
2019-03-06T12:59:01.634Z,100601.14
2019-03-06T13:01:33.263Z,100603.93
2019-03-06T13:04:03.976Z,100593.27
2019-03-06T13:06:38.271Z,100591.88
2019-03-06T13:09:14.578Z,100593.22
2019-03-06T13:11:45.184Z,100592.17
2019-03-06T13:14:16.673Z,100595.33
2019-03-06T13:16:50.495Z,100578.84
2019-03-06T13:19:22.528Z,100580.58
2019-03-06T13:21:53.096Z,100578.58
2019-03-06T13:24:23.631Z,100570.59
2019-03-06T13:26:54.293Z,100571.36
2019-03-06T13:29:25.958Z,100565.58
2019-03-06T13:31:56.567Z,100558.91
2019-03-06T13:34:28.736Z,100558.03
2019-03-06T13:36:59.272Z,100557.72
2019-03-06T13:39:29.981Z,100552.50
2019-03-06T13:42:00.578Z,100556.19
2019-03-06T13:44:31.114Z,100548.73
2019-03-06T13:47:01.628Z,100538.41
2019-03-06T13:49:33.077Z,100543.27
2019-03-06T13:52:03.601Z,100529.86
2019-03-06T13:54:34.322Z,100525.32
2019-03-06T13:57:04.840Z,100517.60
2019-03-06T13:59:35.384Z,100516.44
2019-03-06T14:02:05.914Z,100514.58
2019-03-06T14:04:36.665Z,100510.67
2019-03-06T14:07:07.096Z,100503.66
2019-03-06T14:09:37.586Z,100514.63
2019-03-06T14:12:08.311Z,100514.77
2019-03-06T14:14:38.861Z,100523.69
2019-03-06T14:17:14.901Z,100514.91
2019-03-06T14:19:45.725Z,100510.59
2019-03-06T14:22:16.247Z,100500.98
2019-03-06T14:24:46.978Z,100499.00
2019-03-06T14:27:17.413Z,100485.20
2019-03-06T14:29:48.022Z,100484.37
2019-03-06T14:32:18.549Z,100481.81
2019-03-06T14:34:49.026Z,100482.70
2019-03-06T14:37:19.474Z,100479.14
2019-03-06T14:39:50.009Z,100474.13
2019-03-06T14:42:20.442Z,100472.48
2019-03-06T14:44:50.918Z,100480.31
2019-03-06T14:47:23.025Z,100470.71
2019-03-06T14:49:53.487Z,100472.94
2019-03-06T14:52:24.002Z,100466.44
2019-03-06T14:54:54.562Z,100468.46
2019-03-06T14:57:26.079Z,100471.80
2019-03-06T14:59:56.806Z,100467.12
2019-03-06T15:02:27.302Z,100463.95
2019-03-06T15:04:57.780Z,100456.23
2019-03-06T15:07:28.368Z,100460.02
2019-03-06T15:09:59.004Z,100456.92
2019-03-06T15:12:31.481Z,100450.72
2019-03-06T15:15:01.812Z,100438.08
2019-03-06T15:17:32.331Z,100424.17
2019-03-06T15:20:02.986Z,100418.67
2019-03-06T15:22:38.669Z,100415.78
2019-03-06T15:25:11.509Z,100408.88
2019-03-06T15:27:42.035Z,100413.55
2019-03-06T15:30:14.683Z,100401.34
2019-03-06T15:32:45.219Z,100392.80
2019-03-06T15:35:15.926Z,100386.75
2019-03-06T15:37:46.462Z,100384.38
2019-03-06T15:40:22.925Z,100382.67
2019-03-06T15:42:53.451Z,100369.69
2019-03-06T15:45:25.583Z,100375.05
2019-03-06T15:47:56.296Z,100375.16
2019-03-06T15:50:27.341Z,100370.89
2019-03-06T15:52:58.200Z,100364.20
2019-03-06T15:55:29.184Z,100362.42
2019-03-06T15:57:59.703Z,100369.66
2019-03-06T16:00:46.291Z,100364.23
2019-03-06T16:03:14.645Z,100368.11
2019-03-06T16:05:45.434Z,100365.52
2019-03-06T16:08:15.935Z,100360.68
2019-03-06T16:10:46.793Z,100351.55
2019-03-06T16:13:17.222Z,100345.16
2019-03-06T16:15:47.771Z,100345.12
2019-03-06T16:18:20.186Z,100344.70
2019-03-06T16:20:51.800Z,100349.91
2019-03-06T16:23:22.610Z,100353.75
2019-03-06T16:25:53.077Z,100356.92
2019-03-06T16:28:23.529Z,100353.42
2019-03-06T16:30:53.991Z,100351.08
2019-03-06T16:33:24.494Z,100346.65
2019-03-06T16:35:56.355Z,100347.53
2019-03-06T16:38:26.912Z,100343.96
2019-03-06T16:40:57.416Z,100341.69
2019-03-06T16:43:27.924Z,100327.67
2019-03-06T16:45:59.749Z,100330.90
2019-03-06T16:48:30.452Z,100324.58
2019-03-06T16:51:00.987Z,100323.91
2019-03-06T16:53:31.554Z,100322.38
2019-03-06T16:56:02.227Z,100326.03
2019-03-06T16:58:32.773Z,100328.64
2019-03-06T17:01:03.881Z,100327.73
2019-03-06T17:03:34.394Z,100317.21
2019-03-06T17:06:05.006Z,100317.50
2019-03-06T17:08:36.606Z,100315.38
2019-03-06T17:11:07.132Z,100319.73
2019-03-06T17:13:37.655Z,100318.91
2019-03-06T17:16:08.200Z,100318.23
2019-03-06T17:18:38.764Z,100316.74
2019-03-06T17:21:09.335Z,100312.66
2019-03-06T17:23:40.167Z,100316.13
2019-03-06T17:26:12.233Z,100315.84
2019-03-06T17:28:42.952Z,100312.81
2019-03-06T17:31:13.632Z,100298.91
2019-03-06T17:33:44.350Z,100283.97
2019-03-06T17:36:15.115Z,100275.41
2019-03-06T17:38:45.792Z,100269.47
2019-03-06T17:41:16.501Z,100259.59
2019-03-06T17:43:47.644Z,100259.91
2019-03-06T17:46:20.081Z,100252.94
2019-03-06T17:48:50.832Z,100256.84
2019-03-06T17:51:22.378Z,100258.32
2019-03-06T17:53:53.111Z,100269.22
2019-03-06T17:56:24.401Z,100271.50
2019-03-06T17:58:55.439Z,100267.36
2019-03-06T18:01:27.012Z,100256.50
2019-03-06T18:04:02.352Z,100261.51
2019-03-06T18:06:33.345Z,100263.42
2019-03-06T18:09:04.510Z,100267.13
2019-03-06T18:11:36.659Z,100267.28
2019-03-06T18:14:07.077Z,100265.52
2019-03-06T18:16:37.715Z,100256.83
2019-03-06T18:19:08.352Z,100246.86
2019-03-06T18:21:38.824Z,100247.28
2019-03-06T18:24:09.659Z,100237.43
2019-03-06T18:26:40.307Z,100238.22
2019-03-06T18:29:10.899Z,100230.48
2019-03-06T18:31:41.582Z,100226.93
2019-03-06T18:34:12.082Z,100227.19
2019-03-06T18:36:42.621Z,100223.10
2019-03-06T18:39:14.732Z,100224.02
2019-03-06T18:41:45.283Z,100222.86
2019-03-06T18:44:16.308Z,100226.36
2019-03-06T18:46:47.106Z,100224.37
2019-03-06T18:49:17.555Z,100223.58
2019-03-06T18:51:49.498Z,100211.39
2019-03-06T18:54:20.551Z,100204.84
2019-03-06T18:56:51.435Z,100200.42
2019-03-06T18:59:21.941Z,100197.33
2019-03-06T19:01:52.423Z,100189.71
2019-03-06T19:04:22.925Z,100182.72
2019-03-06T19:06:53.455Z,100176.57
2019-03-06T19:09:24.054Z,100177.20
2019-03-06T19:11:54.598Z,100169.21
2019-03-06T19:14:25.046Z,100164.15
2019-03-06T19:16:55.601Z,100160.05
2019-03-06T19:19:26.046Z,100151.75
2019-03-06T19:21:56.613Z,100153.88
2019-03-06T19:24:27.421Z,100156.54
2019-03-06T19:26:57.918Z,100149.09
2019-03-06T19:29:28.474Z,100154.16
2019-03-06T19:31:58.956Z,100145.15
2019-03-06T19:34:29.398Z,100138.80
2019-03-06T19:37:00.066Z,100128.23
2019-03-06T19:39:30.517Z,100127.21
2019-03-06T19:42:01.003Z,100121.56
2019-03-06T19:44:31.653Z,100121.49
2019-03-06T19:47:02.141Z,100122.79
2019-03-06T19:49:32.728Z,100106.76
2019-03-06T19:52:03.257Z,100108.19
2019-03-06T19:54:34.649Z,100107.14
2019-03-06T19:57:05.208Z,100113.62
2019-03-06T19:59:35.645Z,100100.38
2019-03-06T20:02:06.209Z,100095.25
2019-03-06T20:04:36.845Z,100094.69
2019-03-06T20:07:07.305Z,100093.20
2019-03-06T20:09:37.812Z,100100.93
2019-03-06T20:12:08.716Z,100101.50
2019-03-06T20:14:39.212Z,100106.13
2019-03-06T20:17:09.689Z,100101.80
2019-03-06T20:19:41.201Z,100104.46
2019-03-06T20:22:11.666Z,100106.95
2019-03-06T20:24:42.179Z,100105.20
2019-03-06T20:27:12.770Z,100096.19
2019-03-06T20:29:43.286Z,100098.91
2019-03-06T20:32:13.959Z,100097.87
2019-03-06T20:34:44.461Z,100095.75
2019-03-06T20:37:14.984Z,100091.95
2019-03-06T20:39:45.444Z,100095.01
2019-03-06T20:42:15.969Z,100088.13
2019-03-06T20:44:46.491Z,100091.37
2019-03-06T20:47:16.966Z,100085.65
2019-03-06T20:49:47.480Z,100079.04
2019-03-06T20:52:18.008Z,100075.81
2019-03-06T20:54:48.513Z,100075.02
2019-03-06T20:57:19.056Z,100076.84
2019-03-06T20:59:49.744Z,100067.05
2019-03-06T21:02:20.325Z,100070.44
2019-03-06T21:04:50.864Z,100064.16
2019-03-06T21:07:21.336Z,100055.73
2019-03-06T21:09:51.857Z,100053.81
2019-03-06T21:12:22.327Z,100045.58
2019-03-06T21:14:53.042Z,100043.52
2019-03-06T21:17:23.565Z,100040.06
2019-03-06T21:19:54.091Z,100039.63
2019-03-06T21:22:24.564Z,100035.02
2019-03-06T21:24:55.045Z,100033.16
2019-03-06T21:27:25.559Z,100030.70
2019-03-06T21:29:56.003Z,100023.69
2019-03-06T21:32:26.652Z,100023.95
2019-03-06T21:34:57.102Z,100016.70
2019-03-06T21:37:27.586Z,100004.25
2019-03-06T21:39:58.034Z,100004.19
2019-03-06T21:42:28.710Z,99998.03
2019-03-06T21:44:59.232Z,99996.55
2019-03-06T21:47:29.872Z,99991.96
2019-03-06T21:50:01.385Z,99991.10
2019-03-06T21:52:33.436Z,99989.17
2019-03-06T21:55:04.875Z,99984.68
2019-03-06T21:57:35.400Z,99974.91
2019-03-06T22:00:15.608Z,99979.22
2019-03-06T22:02:46.448Z,99972.25
2019-03-06T22:05:17.247Z,99970.68
2019-03-06T22:07:50.194Z,99961.08
2019-03-06T22:10:19.922Z,99966.94
2019-03-06T22:12:50.444Z,99958.27
2019-03-06T22:15:24.219Z,99958.27
2019-03-06T22:17:54.919Z,99952.16
2019-03-06T22:20:25.435Z,99949.77
2019-03-06T22:22:55.992Z,99947.91
2019-03-06T22:25:26.504Z,99944.92
2019-03-06T22:27:56.955Z,99944.20
2019-03-06T22:30:27.382Z,99938.73
2019-03-06T22:32:59.678Z,99930.42
2019-03-06T22:35:30.220Z,99930.63
2019-03-06T22:38:00.868Z,99929.58
2019-03-06T22:40:31.317Z,99936.27
2019-03-06T22:43:02.955Z,99929.52
2019-03-06T22:45:33.460Z,99927.06
2019-03-06T22:48:04.122Z,99921.76
2019-03-06T22:50:34.939Z,99915.85
2019-03-06T22:53:05.521Z,99909.13
2019-03-06T22:55:36.043Z,99894.87
2019-03-06T22:58:06.501Z,99886.47
2019-03-06T23:00:56.497Z,99884.27
2019-03-06T23:03:28.685Z,99879.38
2019-03-06T23:05:59.188Z,99878.22
2019-03-06T23:08:29.673Z,99876.22
2019-03-06T23:11:00.237Z,99877.53
2019-03-06T23:13:30.770Z,99874.34
2019-03-06T23:16:01.191Z,99875.21
2019-03-06T23:18:31.719Z,99868.21
2019-03-06T23:21:02.166Z,99855.66
2019-03-06T23:23:32.689Z,99860.71
2019-03-06T23:26:03.195Z,99851.70
2019-03-06T23:28:33.704Z,99850.02
2019-03-06T23:31:04.196Z,99848.13
2019-03-06T23:33:34.668Z,99832.50
2019-03-06T23:36:05.096Z,99828.21
2019-03-06T23:38:35.733Z,99829.76
2019-03-06T23:41:06.257Z,99824.70
2019-03-06T23:43:36.720Z,99821.25
2019-03-06T23:46:07.152Z,99818.94
2019-03-06T23:48:37.616Z,99818.39
2019-03-06T23:51:10.937Z,99814.78
2019-03-06T23:53:43.028Z,99809.41
2019-03-06T23:56:13.475Z,99799.58
2019-03-06T23:58:43.999Z,99796.71
